createdAt,value
2018-03-14T00:00:19.430Z,0.00
2018-03-14T00:01:19.441Z,0.00
2018-03-14T00:02:19.441Z,0.00
2018-03-14T00:03:19.447Z,0.00
2018-03-14T00:04:19.455Z,0.00
2018-03-14T00:05:40.485Z,0.00
2018-03-14T00:06:19.477Z,0.00
2018-03-14T00:07:19.496Z,0.00
2018-03-14T00:08:19.497Z,0.00
2018-03-14T00:09:19.491Z,0.00
2018-03-14T00:10:19.505Z,0.00
2018-03-14T00:11:40.585Z,0.00
2018-03-14T00:12:19.602Z,0.00
2018-03-14T00:13:19.520Z,0.00
2018-03-14T00:14:19.520Z,0.00
2018-03-14T00:15:19.682Z,0.00
2018-03-14T00:16:19.615Z,0.00
2018-03-14T00:17:40.613Z,0.00
2018-03-14T00:18:19.566Z,0.00
2018-03-14T00:19:19.946Z,0.00
2018-03-14T00:20:19.674Z,0.00
2018-03-14T00:21:19.576Z,0.00
2018-03-14T00:22:19.569Z,0.00
2018-03-14T00:23:40.680Z,0.00
2018-03-14T00:24:19.663Z,0.00
2018-03-14T00:25:19.657Z,0.00
2018-03-14T00:26:19.616Z,0.00
2018-03-14T00:27:19.698Z,0.00
2018-03-14T00:28:19.724Z,0.00
2018-03-14T00:29:40.710Z,0.00
2018-03-14T00:30:19.699Z,0.00
2018-03-14T00:31:19.688Z,0.00
2018-03-14T00:32:19.697Z,0.00
2018-03-14T00:33:20.365Z,0.00
2018-03-14T00:34:19.731Z,0.00
2018-03-14T00:35:40.756Z,0.00
2018-03-14T00:36:19.679Z,0.00
2018-03-14T00:37:19.738Z,0.00
2018-03-14T00:38:19.724Z,0.00
2018-03-14T00:39:19.685Z,0.00
2018-03-14T00:40:19.765Z,0.00
2018-03-14T00:41:40.768Z,0.00
2018-03-14T00:42:19.722Z,0.00
2018-03-14T00:43:20.564Z,0.00
2018-03-14T00:44:19.785Z,0.00
2018-03-14T00:45:19.765Z,0.00
2018-03-14T00:46:19.768Z,0.00
2018-03-14T00:47:40.924Z,0.00
2018-03-14T00:48:19.750Z,0.00
2018-03-14T00:49:20.231Z,0.00
2018-03-14T00:50:19.807Z,0.00
2018-03-14T00:51:19.786Z,0.00
2018-03-14T00:52:19.798Z,0.00
2018-03-14T00:53:40.793Z,0.00
2018-03-14T00:54:19.812Z,0.00
2018-03-14T00:55:19.850Z,0.00
2018-03-14T00:56:19.857Z,0.00
2018-03-14T00:57:19.801Z,0.00
2018-03-14T00:58:19.815Z,0.00
2018-03-14T00:59:40.834Z,0.00
2018-03-14T01:00:20.161Z,0.00
2018-03-14T01:01:19.856Z,0.00
2018-03-14T01:02:19.843Z,0.00
2018-03-14T01:03:19.863Z,0.00
2018-03-14T01:04:19.855Z,0.00
2018-03-14T01:05:40.866Z,0.00
2018-03-14T01:06:20.535Z,0.00
2018-03-14T01:07:19.959Z,0.00
2018-03-14T01:08:19.902Z,0.00
2018-03-14T01:09:19.923Z,0.00
2018-03-14T01:10:19.996Z,0.00
2018-03-14T01:11:41.010Z,0.00
2018-03-14T01:12:19.925Z,0.00
2018-03-14T01:13:19.928Z,0.00
2018-03-14T01:14:19.915Z,0.00
2018-03-14T01:15:19.949Z,0.00
2018-03-14T01:16:19.953Z,0.00
2018-03-14T01:17:40.996Z,0.00
2018-03-14T01:18:19.978Z,0.00
2018-03-14T01:19:19.944Z,0.00
2018-03-14T01:20:19.990Z,0.00
2018-03-14T01:21:19.997Z,0.00
2018-03-14T01:22:19.997Z,0.00
2018-03-14T01:23:41.005Z,0.00
2018-03-14T01:24:20.009Z,0.00
2018-03-14T01:25:19.985Z,0.00
2018-03-14T01:26:20.004Z,0.00
2018-03-14T01:27:20.003Z,0.00
2018-03-14T01:28:20.009Z,0.00
2018-03-14T01:29:41.017Z,0.00
2018-03-14T01:30:20.016Z,0.00
2018-03-14T01:31:20.020Z,0.00
2018-03-14T01:32:20.020Z,0.00
2018-03-14T01:33:20.030Z,0.00
2018-03-14T01:34:20.147Z,0.00
2018-03-14T01:35:41.050Z,0.00
2018-03-14T01:36:20.058Z,0.00
2018-03-14T01:37:20.097Z,0.00
2018-03-14T01:38:20.069Z,0.00
2018-03-14T01:39:20.074Z,0.00
2018-03-14T01:40:20.083Z,0.00
2018-03-14T01:41:41.103Z,0.00
2018-03-14T01:42:20.100Z,0.00
2018-03-14T01:43:20.106Z,0.00
2018-03-14T01:44:20.098Z,0.00
2018-03-14T01:45:20.125Z,0.00
2018-03-14T01:46:20.122Z,0.00
2018-03-14T01:47:41.133Z,0.00
2018-03-14T01:48:20.144Z,0.00
2018-03-14T01:49:20.134Z,0.00
2018-03-14T01:50:20.148Z,0.00
2018-03-14T01:51:20.146Z,0.00
2018-03-14T01:52:20.159Z,0.00
2018-03-14T01:53:41.313Z,0.00
2018-03-14T01:54:20.169Z,0.00
2018-03-14T01:55:20.176Z,0.00
2018-03-14T01:56:20.201Z,0.00
2018-03-14T01:57:20.253Z,0.00
2018-03-14T01:58:20.238Z,0.00
2018-03-14T01:59:41.216Z,0.00
2018-03-14T02:00:20.211Z,0.00
2018-03-14T02:01:20.212Z,0.00
2018-03-14T02:02:20.305Z,0.00
2018-03-14T02:03:20.239Z,0.00
2018-03-14T02:04:20.232Z,0.00
2018-03-14T02:05:41.253Z,0.00
2018-03-14T02:06:20.250Z,0.00
2018-03-14T02:07:20.256Z,0.00
2018-03-14T02:08:20.275Z,0.00
2018-03-14T02:09:20.272Z,0.00
2018-03-14T02:10:20.273Z,0.00
2018-03-14T02:11:41.306Z,0.00
2018-03-14T02:12:20.333Z,0.00
2018-03-14T02:13:20.300Z,0.00
2018-03-14T02:14:20.298Z,0.00
2018-03-14T02:15:20.322Z,0.00
2018-03-14T02:16:20.316Z,0.00
2018-03-14T02:17:41.341Z,0.00
2018-03-14T02:18:20.336Z,0.00
2018-03-14T02:19:20.357Z,0.00
2018-03-14T02:20:20.345Z,0.00
2018-03-14T02:21:20.352Z,0.00
2018-03-14T02:22:20.358Z,0.00
2018-03-14T02:23:41.382Z,0.00
2018-03-14T02:24:20.362Z,0.00
2018-03-14T02:25:20.437Z,0.00
2018-03-14T02:26:20.422Z,0.00
2018-03-14T02:27:20.383Z,0.00
2018-03-14T02:28:20.396Z,0.00
2018-03-14T02:29:41.465Z,0.00
2018-03-14T02:30:20.397Z,0.00
2018-03-14T02:31:20.419Z,0.00
2018-03-14T02:32:20.429Z,0.00
2018-03-14T02:33:20.428Z,0.00
2018-03-14T02:34:20.431Z,0.00
2018-03-14T02:35:41.449Z,0.00
2018-03-14T02:36:20.444Z,0.00
2018-03-14T02:37:20.450Z,0.00
2018-03-14T02:38:20.452Z,0.00
2018-03-14T02:39:20.462Z,0.00
2018-03-14T02:40:20.463Z,0.00
2018-03-14T02:41:41.488Z,0.00
2018-03-14T02:42:20.488Z,0.00
2018-03-14T02:43:20.481Z,0.00
2018-03-14T02:44:20.496Z,0.00
2018-03-14T02:45:20.499Z,0.00
2018-03-14T02:46:20.508Z,0.00
2018-03-14T02:47:41.522Z,0.00
2018-03-14T02:48:20.578Z,0.00
2018-03-14T02:49:20.524Z,0.00
2018-03-14T02:50:20.527Z,0.00
2018-03-14T02:51:20.550Z,0.00
2018-03-14T02:52:20.544Z,0.00
2018-03-14T02:53:41.557Z,0.00
2018-03-14T02:54:20.563Z,0.00
2018-03-14T02:55:20.573Z,0.00
2018-03-14T02:56:20.563Z,0.00
2018-03-14T02:57:20.580Z,0.00
2018-03-14T02:58:20.580Z,0.00
2018-03-14T02:59:41.601Z,0.00
2018-03-14T03:00:20.599Z,0.00
2018-03-14T03:01:20.602Z,0.00
2018-03-14T03:02:20.606Z,0.00
2018-03-14T03:03:21.543Z,0.00
2018-03-14T03:04:20.619Z,0.00
2018-03-14T03:05:41.645Z,0.00
2018-03-14T03:06:20.636Z,0.00
2018-03-14T03:07:20.651Z,0.00
2018-03-14T03:08:20.650Z,0.00
2018-03-14T03:09:20.650Z,0.00
2018-03-14T03:10:20.660Z,0.00
2018-03-14T03:11:41.680Z,0.00
2018-03-14T03:12:20.671Z,0.00
2018-03-14T03:13:20.681Z,0.00
2018-03-14T03:14:20.680Z,0.00
2018-03-14T03:15:20.694Z,0.00
2018-03-14T03:16:20.720Z,0.00
2018-03-14T03:17:41.726Z,0.00
2018-03-14T03:18:20.708Z,0.00
2018-03-14T03:19:20.716Z,0.00
2018-03-14T03:20:20.722Z,0.00
2018-03-14T03:21:20.727Z,0.00
2018-03-14T03:22:20.735Z,0.00
2018-03-14T03:23:41.754Z,0.00
2018-03-14T03:24:20.748Z,0.00
2018-03-14T03:25:20.752Z,0.00
2018-03-14T03:26:20.768Z,0.00
2018-03-14T03:27:20.770Z,0.00
2018-03-14T03:28:20.774Z,0.00
2018-03-14T03:29:41.786Z,0.00
2018-03-14T03:30:20.790Z,0.00
2018-03-14T03:31:20.789Z,0.00
2018-03-14T03:32:20.791Z,0.00
2018-03-14T03:33:20.801Z,0.00
2018-03-14T03:34:20.810Z,0.00
2018-03-14T03:35:41.878Z,0.00
2018-03-14T03:36:20.828Z,0.00
2018-03-14T03:37:20.829Z,0.00
2018-03-14T03:38:20.838Z,0.00
2018-03-14T03:39:20.838Z,0.00
2018-03-14T03:40:20.847Z,0.00
2018-03-14T03:41:41.870Z,0.00
2018-03-14T03:42:20.865Z,0.00
2018-03-14T03:43:20.865Z,0.00
2018-03-14T03:44:20.984Z,0.00
2018-03-14T03:45:20.875Z,0.00
2018-03-14T03:46:20.882Z,0.00
2018-03-14T03:47:41.897Z,0.00
2018-03-14T03:48:20.896Z,0.00
2018-03-14T03:49:20.902Z,0.00
2018-03-14T03:50:20.913Z,0.00
2018-03-14T03:51:20.921Z,0.00
2018-03-14T03:52:20.918Z,0.00
2018-03-14T03:53:41.938Z,0.00
2018-03-14T03:54:20.932Z,0.00
2018-03-14T03:55:20.934Z,0.00
2018-03-14T03:56:20.942Z,0.00
2018-03-14T03:57:20.976Z,0.00
2018-03-14T03:58:20.951Z,0.00
2018-03-14T03:59:41.977Z,0.00
2018-03-14T04:00:20.969Z,0.00
2018-03-14T04:01:20.970Z,0.00
2018-03-14T04:02:20.981Z,0.00
2018-03-14T04:03:20.984Z,0.00
2018-03-14T04:04:20.998Z,0.00
2018-03-14T04:05:42.012Z,0.00
2018-03-14T04:06:21.002Z,0.00
2018-03-14T04:07:21.135Z,0.00
2018-03-14T04:08:21.017Z,0.00
2018-03-14T04:09:21.027Z,0.00
2018-03-14T04:10:21.034Z,0.00
2018-03-14T04:11:42.067Z,0.00
2018-03-14T04:12:21.042Z,0.00
2018-03-14T04:13:21.046Z,0.00
2018-03-14T04:14:21.058Z,0.00
2018-03-14T04:15:21.063Z,0.00
2018-03-14T04:16:21.066Z,0.00
2018-03-14T04:17:42.086Z,0.00
2018-03-14T04:18:21.077Z,0.00
2018-03-14T04:19:21.088Z,0.00
2018-03-14T04:20:21.117Z,0.00
2018-03-14T04:21:21.092Z,0.00
2018-03-14T04:22:21.111Z,0.00
2018-03-14T04:23:42.128Z,0.00
2018-03-14T04:24:21.120Z,0.00
2018-03-14T04:25:21.122Z,0.00
2018-03-14T04:26:21.133Z,0.00
2018-03-14T04:27:21.136Z,0.00
2018-03-14T04:28:21.149Z,0.00
2018-03-14T04:29:42.157Z,0.00
2018-03-14T04:30:21.168Z,0.00
2018-03-14T04:31:21.166Z,0.00
2018-03-14T04:32:21.167Z,0.00
2018-03-14T04:33:21.171Z,0.00
2018-03-14T04:34:21.183Z,0.00
2018-03-14T04:35:42.196Z,0.00
2018-03-14T04:36:21.194Z,0.00
2018-03-14T04:37:21.198Z,0.00
2018-03-14T04:38:21.213Z,0.00
2018-03-14T04:39:21.221Z,0.00
2018-03-14T04:40:21.221Z,0.00
2018-03-14T04:41:42.236Z,0.00
2018-03-14T04:42:21.240Z,0.00
2018-03-14T04:43:21.283Z,0.00
2018-03-14T04:44:21.282Z,0.00
2018-03-14T04:45:21.403Z,0.00
2018-03-14T04:46:21.258Z,0.00
2018-03-14T04:47:42.268Z,0.00
2018-03-14T04:48:21.271Z,0.00
2018-03-14T04:49:21.273Z,0.00
2018-03-14T04:50:21.284Z,0.00
2018-03-14T04:51:21.283Z,0.00
2018-03-14T04:52:21.294Z,0.00
2018-03-14T04:53:42.313Z,0.00
2018-03-14T04:54:21.309Z,0.00
2018-03-14T04:55:21.308Z,0.00
2018-03-14T04:56:21.370Z,0.00
2018-03-14T04:57:21.328Z,0.00
2018-03-14T04:58:21.382Z,0.00
2018-03-14T04:59:42.361Z,0.00
2018-03-14T05:00:21.342Z,0.00
2018-03-14T05:01:21.360Z,0.00
2018-03-14T05:02:21.365Z,0.00
2018-03-14T05:03:21.360Z,0.00
2018-03-14T05:04:21.377Z,0.00
2018-03-14T05:05:42.385Z,0.00
2018-03-14T05:06:21.383Z,0.00
2018-03-14T05:07:21.390Z,0.00
2018-03-14T05:08:21.506Z,0.00
2018-03-14T05:09:21.393Z,0.00
2018-03-14T05:10:21.414Z,0.00
2018-03-14T05:11:42.423Z,0.00
2018-03-14T05:12:21.419Z,0.00
2018-03-14T05:13:21.431Z,0.00
2018-03-14T05:14:21.436Z,0.00
2018-03-14T05:15:21.438Z,0.00
2018-03-14T05:16:21.447Z,0.00
2018-03-14T05:17:42.473Z,0.00
2018-03-14T05:18:21.458Z,0.00
2018-03-14T05:19:21.464Z,0.00
2018-03-14T05:20:21.475Z,0.00
2018-03-14T05:21:21.475Z,0.00
2018-03-14T05:22:21.492Z,0.00
2018-03-14T05:23:42.496Z,0.00
2018-03-14T05:24:21.519Z,0.00
2018-03-14T05:25:21.511Z,0.00
2018-03-14T05:26:21.525Z,0.00
2018-03-14T05:27:21.525Z,0.00
2018-03-14T05:28:21.521Z,0.00
2018-03-14T05:29:42.536Z,0.00
2018-03-14T05:30:21.537Z,0.00
2018-03-14T05:31:21.625Z,0.00
2018-03-14T05:32:21.554Z,0.00
2018-03-14T05:33:21.559Z,0.00
2018-03-14T05:34:21.568Z,0.00
2018-03-14T05:35:42.571Z,0.00
2018-03-14T05:36:21.695Z,0.00
2018-03-14T05:37:21.566Z,0.00
2018-03-14T05:38:21.578Z,0.00
2018-03-14T05:39:21.601Z,0.00
2018-03-14T05:40:21.588Z,0.00
2018-03-14T05:41:42.615Z,0.00
2018-03-14T05:42:21.607Z,5.63
2018-03-14T05:43:21.609Z,5.63
2018-03-14T05:44:21.622Z,5.63
2018-03-14T05:45:21.621Z,5.63
2018-03-14T05:46:21.637Z,5.63
2018-03-14T05:47:42.644Z,5.63
2018-03-14T05:48:21.636Z,5.63
2018-03-14T05:49:21.654Z,11.25
2018-03-14T05:50:21.650Z,11.25
2018-03-14T05:51:21.656Z,11.25
2018-03-14T05:52:21.714Z,11.25
2018-03-14T05:53:42.699Z,11.25
2018-03-14T05:54:21.678Z,11.25
2018-03-14T05:55:21.684Z,16.88
2018-03-14T05:56:21.685Z,16.88
2018-03-14T05:57:21.698Z,16.88
2018-03-14T05:58:21.707Z,16.88
2018-03-14T05:59:42.789Z,16.88
2018-03-14T06:00:21.718Z,16.88
2018-03-14T06:01:21.722Z,22.50
2018-03-14T06:02:21.724Z,22.50
2018-03-14T06:03:21.732Z,22.50
2018-03-14T06:04:21.745Z,22.50
2018-03-14T06:05:42.764Z,28.13
2018-03-14T06:06:21.760Z,28.13
2018-03-14T06:07:21.764Z,28.13
2018-03-14T06:08:21.776Z,28.13
2018-03-14T06:09:21.780Z,28.13
2018-03-14T06:10:21.798Z,33.75
2018-03-14T06:11:42.791Z,33.75
2018-03-14T06:12:21.815Z,33.75
2018-03-14T06:13:21.879Z,33.75
2018-03-14T06:14:21.809Z,39.38
2018-03-14T06:15:21.809Z,39.38
2018-03-14T06:16:21.864Z,45.00
2018-03-14T06:17:42.828Z,45.00
2018-03-14T06:18:21.837Z,50.63
2018-03-14T06:19:21.828Z,50.63
2018-03-14T06:20:21.855Z,56.25
2018-03-14T06:21:21.844Z,56.25
2018-03-14T06:22:21.856Z,61.88
2018-03-14T06:23:43.026Z,61.88
2018-03-14T06:24:21.862Z,67.50
2018-03-14T06:25:21.872Z,67.50
2018-03-14T06:26:21.873Z,73.13
2018-03-14T06:27:21.970Z,67.50
2018-03-14T06:28:22.012Z,67.50
2018-03-14T06:29:42.910Z,67.50
2018-03-14T06:30:21.904Z,73.13
2018-03-14T06:31:21.904Z,78.75
2018-03-14T06:32:21.910Z,78.75
2018-03-14T06:33:21.948Z,84.38
2018-03-14T06:34:21.981Z,84.38
2018-03-14T06:35:42.950Z,84.38
2018-03-14T06:36:21.956Z,84.38
2018-03-14T06:37:21.949Z,84.38
2018-03-14T06:38:21.965Z,84.38
2018-03-14T06:39:21.971Z,84.38
2018-03-14T06:40:21.972Z,90.00
2018-03-14T06:41:43.084Z,95.63
2018-03-14T06:42:21.983Z,95.63
2018-03-14T06:43:22.009Z,95.63
2018-03-14T06:44:22.000Z,95.63
2018-03-14T06:45:21.996Z,95.63
2018-03-14T06:46:22.041Z,101.25
2018-03-14T06:47:43.018Z,101.25
2018-03-14T06:48:22.083Z,101.25
2018-03-14T06:49:22.023Z,101.25
2018-03-14T06:50:22.122Z,101.25
2018-03-14T06:51:22.050Z,101.25
2018-03-14T06:52:22.090Z,101.25
2018-03-14T06:53:43.065Z,101.25
2018-03-14T06:54:22.080Z,106.88
2018-03-14T06:55:22.060Z,106.88
2018-03-14T06:56:22.109Z,106.88
2018-03-14T06:57:22.078Z,112.50
2018-03-14T06:58:22.102Z,118.13
2018-03-14T06:59:44.223Z,123.75
2018-03-14T07:00:22.097Z,118.13
2018-03-14T07:01:22.168Z,118.13
2018-03-14T07:02:22.176Z,118.13
2018-03-14T07:03:22.170Z,118.13
2018-03-14T07:04:22.130Z,118.13
2018-03-14T07:05:43.238Z,118.13
2018-03-14T07:06:22.181Z,118.13
2018-03-14T07:07:22.158Z,123.75
2018-03-14T07:08:22.186Z,135.00
2018-03-14T07:09:22.156Z,140.63
2018-03-14T07:10:22.179Z,151.88
2018-03-14T07:11:43.255Z,157.50
2018-03-14T07:12:22.220Z,163.13
2018-03-14T07:13:22.212Z,163.13
2018-03-14T07:14:22.204Z,163.13
2018-03-14T07:15:22.344Z,163.13
2018-03-14T07:16:22.270Z,163.13
2018-03-14T07:17:43.231Z,163.13
2018-03-14T07:18:22.279Z,163.13
2018-03-14T07:19:22.246Z,180.00
2018-03-14T07:20:22.364Z,191.25
2018-03-14T07:21:22.283Z,202.50
2018-03-14T07:22:22.287Z,213.75
2018-03-14T07:23:43.345Z,213.75
2018-03-14T07:24:22.358Z,219.38
2018-03-14T07:25:22.368Z,225.00
2018-03-14T07:26:22.394Z,236.25
2018-03-14T07:27:22.408Z,236.25
2018-03-14T07:28:23.061Z,236.25
2018-03-14T07:29:43.312Z,236.25
2018-03-14T07:30:22.310Z,241.88
2018-03-14T07:31:22.321Z,241.88
2018-03-14T07:32:22.315Z,241.88
2018-03-14T07:33:22.317Z,247.50
2018-03-14T07:34:22.342Z,258.75
2018-03-14T07:35:43.351Z,270.00
2018-03-14T07:36:22.383Z,286.88
2018-03-14T07:37:22.358Z,298.13
2018-03-14T07:38:22.368Z,309.38
2018-03-14T07:39:22.371Z,326.25
2018-03-14T07:40:22.374Z,337.50
2018-03-14T07:41:43.387Z,354.38
2018-03-14T07:42:22.399Z,371.25
2018-03-14T07:43:22.426Z,371.25
2018-03-14T07:44:22.415Z,376.88
2018-03-14T07:45:22.424Z,388.13
2018-03-14T07:46:22.421Z,405.00
2018-03-14T07:47:43.561Z,410.63
2018-03-14T07:48:22.451Z,410.63
2018-03-14T07:49:22.443Z,399.38
2018-03-14T07:50:22.493Z,399.38
2018-03-14T07:51:22.575Z,416.25
2018-03-14T07:52:22.465Z,410.63
2018-03-14T07:53:43.477Z,393.75
2018-03-14T07:54:22.482Z,410.63
2018-03-14T07:55:22.483Z,371.25
2018-03-14T07:56:22.515Z,376.88
2018-03-14T07:57:22.511Z,382.50
2018-03-14T07:58:22.517Z,405.00
2018-03-14T07:59:43.530Z,416.25
2018-03-14T08:00:22.536Z,444.38
2018-03-14T08:01:22.533Z,478.13
2018-03-14T08:02:22.573Z,495.00
2018-03-14T08:03:22.553Z,523.13
2018-03-14T08:04:22.560Z,556.88
2018-03-14T08:05:43.577Z,585.00
2018-03-14T08:06:22.590Z,618.75
2018-03-14T08:07:22.588Z,573.75
2018-03-14T08:08:22.586Z,562.50
2018-03-14T08:09:22.603Z,528.75
2018-03-14T08:10:22.612Z,540.00
2018-03-14T08:11:43.622Z,596.25
2018-03-14T08:12:22.638Z,517.50
2018-03-14T08:13:22.641Z,472.50
2018-03-14T08:14:22.644Z,450.00
2018-03-14T08:15:22.685Z,438.75
2018-03-14T08:16:22.662Z,416.25
2018-03-14T08:17:43.698Z,399.38
2018-03-14T08:18:22.676Z,405.00
2018-03-14T08:19:22.695Z,427.50
2018-03-14T08:20:22.741Z,450.00
2018-03-14T08:21:22.712Z,478.13
2018-03-14T08:22:22.707Z,500.63
2018-03-14T08:23:43.769Z,511.88
2018-03-14T08:24:22.730Z,523.13
2018-03-14T08:25:22.743Z,534.38
2018-03-14T08:26:22.749Z,568.13
2018-03-14T08:27:22.786Z,590.63
2018-03-14T08:28:22.777Z,579.38
2018-03-14T08:29:43.843Z,573.75
2018-03-14T08:30:22.831Z,573.75
2018-03-14T08:31:22.829Z,630.00
2018-03-14T08:32:22.820Z,652.50
2018-03-14T08:33:22.837Z,517.50
2018-03-14T08:34:22.829Z,500.63
2018-03-14T08:35:43.879Z,506.25
2018-03-14T08:36:22.877Z,534.38
2018-03-14T08:37:22.906Z,545.63
2018-03-14T08:38:22.927Z,551.25
2018-03-14T08:39:23.029Z,573.75
2018-03-14T08:40:22.943Z,607.50
2018-03-14T08:41:43.907Z,652.50
2018-03-14T08:42:22.914Z,691.88
2018-03-14T08:43:22.952Z,753.75
2018-03-14T08:44:23.023Z,826.88
2018-03-14T08:45:22.932Z,911.25
2018-03-14T08:46:22.959Z,945.00
2018-03-14T08:47:43.967Z,950.63
2018-03-14T08:48:23.018Z,939.38
2018-03-14T08:49:22.967Z,871.88
2018-03-14T08:50:23.016Z,826.88
2018-03-14T08:51:23.056Z,888.75
2018-03-14T08:52:23.040Z,725.63
2018-03-14T08:53:44.049Z,641.25
2018-03-14T08:54:23.073Z,635.63
2018-03-14T08:55:23.024Z,658.13
2018-03-14T08:56:23.079Z,680.63
2018-03-14T08:57:23.119Z,703.13
2018-03-14T08:58:23.051Z,731.25
2018-03-14T08:59:44.156Z,753.75
2018-03-14T09:00:23.095Z,770.63
2018-03-14T09:01:23.219Z,787.50
2018-03-14T09:02:23.144Z,821.25
2018-03-14T09:03:23.119Z,843.75
2018-03-14T09:04:23.182Z,877.50
2018-03-14T09:05:44.156Z,911.25
2018-03-14T09:06:23.418Z,922.50
2018-03-14T09:07:23.226Z,849.38
2018-03-14T09:08:23.183Z,973.13
2018-03-14T09:09:23.238Z,720.00
2018-03-14T09:10:23.201Z,635.63
2018-03-14T09:11:44.278Z,579.38
2018-03-14T09:12:23.183Z,551.25
2018-03-14T09:13:23.215Z,528.75
2018-03-14T09:14:23.241Z,489.38
2018-03-14T09:15:23.262Z,461.25
2018-03-14T09:16:23.298Z,433.13
2018-03-14T09:17:44.289Z,416.25
2018-03-14T09:18:23.259Z,399.38
2018-03-14T09:19:23.423Z,405.00
2018-03-14T09:20:23.464Z,421.88
2018-03-14T09:21:23.304Z,444.38
2018-03-14T09:22:23.309Z,461.25
2018-03-14T09:23:44.318Z,444.38
2018-03-14T09:24:23.402Z,427.50
2018-03-14T09:25:23.329Z,421.88
2018-03-14T09:26:23.318Z,433.13
2018-03-14T09:27:23.464Z,455.63
2018-03-14T09:28:23.363Z,472.50
2018-03-14T09:29:44.440Z,489.38
2018-03-14T09:30:23.398Z,500.63
2018-03-14T09:31:23.422Z,517.50
2018-03-14T09:32:23.405Z,545.63
2018-03-14T09:33:23.417Z,556.88
2018-03-14T09:34:23.402Z,562.50
2018-03-14T09:35:44.464Z,562.50
2018-03-14T09:36:23.478Z,545.63
2018-03-14T09:37:23.460Z,562.50
2018-03-14T09:38:23.495Z,579.38
2018-03-14T09:39:23.507Z,601.88
2018-03-14T09:40:23.480Z,601.88
2018-03-14T09:41:44.496Z,579.38
2018-03-14T09:42:23.690Z,562.50
2018-03-14T09:43:23.556Z,556.88
2018-03-14T09:44:23.613Z,556.88
2018-03-14T09:45:23.534Z,556.88
2018-03-14T09:46:23.542Z,545.63
2018-03-14T09:47:44.546Z,528.75
2018-03-14T09:48:23.561Z,523.13
2018-03-14T09:49:23.653Z,511.88
2018-03-14T09:50:23.565Z,495.00
2018-03-14T09:51:23.627Z,483.75
2018-03-14T09:52:23.619Z,478.13
2018-03-14T09:53:44.680Z,472.50
2018-03-14T09:54:23.635Z,472.50
2018-03-14T09:55:23.632Z,472.50
2018-03-14T09:56:23.667Z,483.75
2018-03-14T09:57:23.645Z,483.75
2018-03-14T09:58:23.689Z,495.00
2018-03-14T09:59:44.654Z,506.25
2018-03-14T10:00:23.743Z,540.00
2018-03-14T10:01:23.698Z,556.88
2018-03-14T10:02:23.696Z,573.75
2018-03-14T10:03:23.777Z,590.63
2018-03-14T10:04:23.768Z,646.88
2018-03-14T10:05:44.753Z,691.88
2018-03-14T10:06:23.767Z,793.13
2018-03-14T10:07:23.747Z,1333.13
2018-03-14T10:08:23.794Z,4100.63
2018-03-14T10:09:23.799Z,1800.00
2018-03-14T10:10:23.828Z,1012.50
2018-03-14T10:11:44.778Z,781.88
2018-03-14T10:12:23.821Z,781.88
2018-03-14T10:13:23.827Z,759.38
2018-03-14T10:14:23.791Z,787.50
2018-03-14T10:15:24.565Z,855.00
2018-03-14T10:16:23.849Z,888.75
2018-03-14T10:17:44.902Z,1018.13
2018-03-14T10:18:23.847Z,1018.13
2018-03-14T10:19:23.874Z,1321.88
2018-03-14T10:20:23.895Z,1186.88
2018-03-14T10:21:23.901Z,4050.00
2018-03-14T10:22:23.922Z,4320.00
2018-03-14T10:23:44.925Z,1119.38
2018-03-14T10:24:23.949Z,1203.75
2018-03-14T10:25:24.635Z,1923.75
2018-03-14T10:26:23.933Z,1260.00
2018-03-14T10:27:23.951Z,4308.75
2018-03-14T10:28:23.995Z,3937.50
2018-03-14T10:29:45.021Z,4578.75
2018-03-14T10:30:23.995Z,1839.38
2018-03-14T10:31:24.076Z,883.13
2018-03-14T10:32:24.096Z,1153.13
2018-03-14T10:33:24.049Z,686.25
2018-03-14T10:34:24.069Z,607.50
2018-03-14T10:35:45.060Z,556.88
2018-03-14T10:36:24.077Z,528.75
2018-03-14T10:37:24.082Z,495.00
2018-03-14T10:38:24.137Z,466.88
2018-03-14T10:39:24.146Z,444.38
2018-03-14T10:40:24.157Z,427.50
2018-03-14T10:41:45.242Z,410.63
2018-03-14T10:42:24.118Z,405.00
2018-03-14T10:43:24.159Z,393.75
2018-03-14T10:44:24.202Z,382.50
2018-03-14T10:45:24.174Z,382.50
2018-03-14T10:46:24.268Z,376.88
2018-03-14T10:47:45.212Z,382.50
2018-03-14T10:48:24.222Z,376.88
2018-03-14T10:49:24.271Z,371.25
2018-03-14T10:50:24.262Z,371.25
2018-03-14T10:51:24.317Z,365.63
2018-03-14T10:52:24.255Z,360.00
2018-03-14T10:53:45.337Z,354.38
2018-03-14T10:54:24.298Z,348.75
2018-03-14T10:55:24.356Z,348.75
2018-03-14T10:56:24.399Z,343.13
2018-03-14T10:57:24.339Z,343.13
2018-03-14T10:58:24.371Z,343.13
2018-03-14T10:59:45.372Z,348.75
2018-03-14T11:00:24.562Z,365.63
2018-03-14T11:01:24.362Z,382.50
2018-03-14T11:02:24.402Z,393.75
2018-03-14T11:03:24.481Z,410.63
2018-03-14T11:04:24.610Z,405.00
2018-03-14T11:05:45.428Z,416.25
2018-03-14T11:06:24.477Z,421.88
2018-03-14T11:07:24.438Z,444.38
2018-03-14T11:08:24.630Z,472.50
2018-03-14T11:09:24.505Z,506.25
2018-03-14T11:10:24.527Z,534.38
2018-03-14T11:11:45.532Z,556.88
2018-03-14T11:12:24.467Z,551.25
2018-03-14T11:13:24.609Z,528.75
2018-03-14T11:14:24.566Z,506.25
2018-03-14T11:15:24.564Z,489.38
2018-03-14T11:16:24.561Z,472.50
2018-03-14T11:17:45.517Z,472.50
2018-03-14T11:18:24.521Z,478.13
2018-03-14T11:19:24.537Z,489.38
2018-03-14T11:20:24.681Z,489.38
2018-03-14T11:21:24.556Z,489.38
2018-03-14T11:22:24.583Z,472.50
2018-03-14T11:23:45.586Z,466.88
2018-03-14T11:24:24.578Z,461.25
2018-03-14T11:25:24.585Z,455.63
2018-03-14T11:26:24.604Z,455.63
2018-03-14T11:27:24.620Z,455.63
2018-03-14T11:28:24.704Z,461.25
2018-03-14T11:29:45.649Z,466.88
2018-03-14T11:30:24.646Z,472.50
2018-03-14T11:31:24.647Z,478.13
2018-03-14T11:32:24.657Z,489.38
2018-03-14T11:33:24.668Z,511.88
2018-03-14T11:34:24.685Z,534.38
2018-03-14T11:35:45.709Z,573.75
2018-03-14T11:36:24.713Z,607.50
2018-03-14T11:37:24.713Z,691.88
2018-03-14T11:38:24.784Z,742.50
2018-03-14T11:39:24.741Z,810.00
2018-03-14T11:40:24.757Z,815.63
2018-03-14T11:41:45.780Z,894.38
2018-03-14T11:42:24.783Z,1456.88
2018-03-14T11:43:24.828Z,781.88
2018-03-14T11:44:24.808Z,714.38
2018-03-14T11:45:24.800Z,731.25
2018-03-14T11:46:24.823Z,748.13
2018-03-14T11:47:45.887Z,748.13
2018-03-14T11:48:24.832Z,759.38
2018-03-14T11:49:24.835Z,781.88
2018-03-14T11:50:24.853Z,714.38
2018-03-14T11:51:24.895Z,691.88
2018-03-14T11:52:24.862Z,652.50
2018-03-14T11:53:45.890Z,601.88
2018-03-14T11:54:24.904Z,556.88
2018-03-14T11:55:24.900Z,528.75
2018-03-14T11:56:24.928Z,517.50
2018-03-14T11:57:24.915Z,517.50
2018-03-14T11:58:24.937Z,506.25
2018-03-14T11:59:45.958Z,500.63
2018-03-14T12:00:24.948Z,511.88
2018-03-14T12:01:25.013Z,517.50
2018-03-14T12:02:24.993Z,523.13
2018-03-14T12:03:24.980Z,534.38
2018-03-14T12:04:25.004Z,551.25
2018-03-14T12:05:46.022Z,579.38
2018-03-14T12:06:25.022Z,613.13
2018-03-14T12:07:25.050Z,641.25
2018-03-14T12:08:25.038Z,658.13
2018-03-14T12:09:25.060Z,669.38
2018-03-14T12:10:25.055Z,680.63
2018-03-14T12:11:46.079Z,691.88
2018-03-14T12:12:25.134Z,703.13
2018-03-14T12:13:25.111Z,731.25
2018-03-14T12:14:25.127Z,770.63
2018-03-14T12:15:25.117Z,815.63
2018-03-14T12:16:25.128Z,826.88
2018-03-14T12:17:47.123Z,776.25
2018-03-14T12:18:25.144Z,759.38
2018-03-14T12:19:25.195Z,798.75
2018-03-14T12:20:25.186Z,961.88
2018-03-14T12:21:25.219Z,1046.25
2018-03-14T12:22:25.243Z,1119.38
2018-03-14T12:23:46.212Z,1147.50
2018-03-14T12:24:25.211Z,1153.13
2018-03-14T12:25:25.226Z,1299.38
2018-03-14T12:26:25.236Z,2278.13
2018-03-14T12:27:25.261Z,2053.13
2018-03-14T12:28:25.256Z,1681.88
2018-03-14T12:29:46.545Z,1653.75
2018-03-14T12:30:25.285Z,1620.00
2018-03-14T12:31:25.289Z,1670.63
2018-03-14T12:32:25.311Z,1743.75
2018-03-14T12:33:25.348Z,2430.00
2018-03-14T12:34:25.332Z,4280.63
2018-03-14T12:35:46.355Z,3560.63
2018-03-14T12:36:25.407Z,2210.63
2018-03-14T12:37:25.368Z,1366.88
2018-03-14T12:38:25.430Z,1777.50
2018-03-14T12:39:25.391Z,1845.00
2018-03-14T12:40:25.408Z,1361.25
2018-03-14T12:41:46.435Z,1186.88
2018-03-14T12:42:25.441Z,995.63
2018-03-14T12:43:25.475Z,916.88
2018-03-14T12:44:25.480Z,883.13
2018-03-14T12:45:25.477Z,860.63
2018-03-14T12:46:25.524Z,877.50
2018-03-14T12:47:46.519Z,877.50
2018-03-14T12:48:25.525Z,843.75
2018-03-14T12:49:25.597Z,798.75
2018-03-14T12:50:25.564Z,748.13